Time;durP1;ratioP1;P1;durP2;ratioP2;P2;SDS_P1;SDS_P2;PMS_P1;PMS_P2;Temp;Humidity;BMP_temperature;BMP_pressure;BME280_temperature;BME280_humidity;BME280_pressure;Samples;Min_cycle;Max_cycle;Signal;HPM_P1;HPM_P2
2022/08/01 00:02:00;;;;;;;4.73;3.77;;;;;;;17.91;59.93;94078.03;5016701;28;20041;-65
2022/08/01 00:04:27;;;;;;;4.93;3.38;;;;;;;17.88;59.45;94079.72;5015001;28;20100;-64
2022/08/01 00:06:54;;;;;;;4.70;3.55;;;;;;;17.88;59.40;94078.94;5013153;28;20038;-64
2022/08/01 00:09:21;;;;;;;4.85;3.10;;;;;;;17.86;59.79;94079.41;5013234;28;20081;-65
2022/08/01 00:11:50;;;;;;;5.13;3.88;;;;;;;17.84;60.07;94081.09;5013049;28;20396;-65
2022/08/01 00:14:26;;;;;;;5.77;3.40;;;;;;;17.81;59.78;94071.66;5013277;28;20099;-65
2022/08/01 00:16:58;;;;;;;4.90;3.20;;;;;;;17.77;60.03;94076.59;5012679;28;20870;-65
2022/08/01 00:19:32;;;;;;;5.28;3.53;;;;;;;17.69;60.42;94076.09;4999193;28;20042;-63
2022/08/01 00:21:59;;;;;;;5.95;3.00;;;;;;;17.70;60.12;94074.09;5013454;28;20048;-64
2022/08/01 00:24:26;;;;;;;4.60;2.97;;;;;;;17.69;59.97;94086.44;5012920;28;20119;-65
2022/08/01 00:26:53;;;;;;;5.13;2.70;;;;;;;17.66;60.15;94079.78;5012832;28;20072;-65
2022/08/01 00:29:19;;;;;;;8.32;2.80;;;;;;;17.64;60.33;94073.16;5012265;28;20265;-65
2022/08/01 00:32:06;;;;;;;5.97;3.10;;;;;;;17.65;60.57;94074.69;4993141;28;20047;-65
2022/08/01 00:34:34;;;;;;;5.93;2.90;;;;;;;17.64;60.56;94078.69;5012642;28;20045;-63
2022/08/01 00:37:00;;;;;;;5.03;2.80;;;;;;;17.61;60.64;94074.84;5013029;28;20441;-64
2022/08/01 00:39:27;;;;;;;4.87;2.53;;;;;;;17.58;60.39;94078.50;5012826;28;20406;-67
2022/08/01 00:41:53;;;;;;;4.07;2.40;;;;;;;17.58;60.76;94072.97;5012448;28;20042;-67
2022/08/01 00:44:27;;;;;;;3.65;2.45;;;;;;;17.55;60.56;94069.09;5012790;28;20041;-65
2022/08/01 00:46:53;;;;;;;3.72;2.50;;;;;;;17.53;60.80;94066.03;5012356;28;20041;-67
2022/08/01 00:49:20;;;;;;;5.95;2.63;;;;;;;17.52;60.75;94072.03;5012489;28;20400;-65
2022/08/01 00:51:48;;;;;;;3.70;2.40;;;;;;;17.42;61.27;94073.22;5012296;28;20046;-64
2022/08/01 00:54:15;;;;;;;6.63;3.80;;;;;;;17.30;62.25;94072.09;5012153;28;20045;-64
2022/08/01 00:56:43;;;;;;;5.75;4.00;;;;;;;16.97;63.58;94078.09;5012160;28;20038;-64
2022/08/01 00:59:11;;;;;;;5.20;3.60;;;;;;;16.90;63.69;94070.81;5012435;28;20046;-66
2022/08/01 01:01:40;;;;;;;5.15;3.42;;;;;;;16.88;63.76;94073.28;5013849;28;20045;-64
2022/08/01 01:04:16;;;;;;;4.60;3.57;;;;;;;16.88;64.15;94073.28;5017148;28;20041;-66
2022/08/01 01:06:55;;;;;;;8.52;4.13;;;;;;;16.78;64.39;94077.94;5006866;28;20057;-65
2022/08/01 01:09:22;;;;;;;5.60;4.00;;;;;;;16.60;64.75;94066.75;5005723;28;20054;-65
2022/08/01 01:12:02;;;;;;;5.22;3.75;;;;;;;16.62;64.95;94069.84;5012006;28;20572;-65
2022/08/01 01:15:10;;;;;;;5.47;3.60;;;;;;;16.65;64.48;94076.47;5012193;28;20049;-64
2022/08/01 01:17:39;;;;;;;4.97;3.30;;;;;;;16.73;64.28;94067.44;4991828;28;21755;-64
2022/08/01 01:20:19;;;;;;;4.68;3.30;;;;;;;16.85;63.59;94081.72;5005035;28;20045;-67
2022/08/01 01:23:23;;;;;;;5.40;3.20;;;;;;;16.93;63.16;94075.44;5011671;28;20063;-65
2022/08/01 01:26:00;;;;;;;4.82;3.30;;;;;;;16.94;63.04;94076.22;5011723;28;20609;-64
2022/08/01 01:29:05;;;;;;;6.30;3.60;;;;;;;16.95;63.15;94075.00;4999280;28;20044;-64
2022/08/01 01:31:41;;;;;;;4.60;3.30;;;;;;;17.03;62.69;94069.97;4987838;28;20827;-62
2022/08/01 01:34:11;;;;;;;5.05;3.30;;;;;;;17.00;62.80;94077.16;5019030;28;20043;-65
2022/08/01 01:36:39;;;;;;;5.15;3.47;;;;;;;16.96;63.52;94074.56;5014392;28;20403;-65
2022/08/01 01:39:06;;;;;;;5.90;3.70;;;;;;;16.90;63.33;94078.34;5011707;28;20044;-63
2022/08/01 01:41:37;;;;;;;5.57;3.70;;;;;;;16.84;63.55;94080.16;5010685;28;20402;-63
2022/08/01 01:44:04;;;;;;;8.00;3.60;;;;;;;16.76;64.34;94080.41;5009753;28;20084;-63
2022/08/01 01:46:32;;;;;;;7.20;3.67;;;;;;;16.43;65.20;94077.22;5012168;28;20056;-63
2022/08/01 01:49:01;;;;;;;6.25;3.67;;;;;;;16.43;65.20;94068.16;5010680;28;20428;-63
2022/08/01 01:51:29;;;;;;;8.30;3.70;;;;;;;16.33;65.55;94081.91;5011263;28;20398;-64
2022/08/01 01:53:59;;;;;;;6.03;3.67;;;;;;;16.25;66.27;94068.75;5011236;28;20049;-64
2022/08/01 01:56:27;;;;;;;8.07;3.90;;;;;;;16.13;66.32;94082.19;5011133;28;20046;-63
2022/08/01 01:58:57;;;;;;;7.32;4.13;;;;;;;16.05;66.98;94080.88;5010922;28;20053;-64
2022/08/01 02:01:27;;;;;;;5.72;4.30;;;;;;;15.91;67.31;94084.13;5011111;28;20046;-63
2022/08/01 02:04:15;;;;;;;6.78;4.00;;;;;;;15.91;67.54;94090.44;4998765;28;20046;-65
2022/08/01 02:06:44;;;;;;;5.63;4.20;;;;;;;15.87;67.35;94078.72;5009615;28;20050;-65
2022/08/01 02:09:14;;;;;;;7.07;4.03;;;;;;;15.90;67.93;94082.59;5011242;28;20046;-63
2022/08/01 02:11:41;;;;;;;11.45;6.75;;;;;;;15.80;67.91;94078.97;5010667;28;20052;-63
2022/08/01 02:14:29;;;;;;;12.35;7.95;;;;;;;15.80;67.97;94084.50;5011063;28;20052;-67
2022/08/01 02:16:58;;;;;;;6.63;4.50;;;;;;;15.77;67.98;94083.41;5010588;28;20540;-64
2022/08/01 02:19:25;;;;;;;6.20;4.05;;;;;;;15.77;68.06;94090.91;5010775;28;20042;-67
2022/08/01 02:22:01;;;;;;;7.07;3.90;;;;;;;15.72;68.53;94095.03;4997471;28;20049;-64
2022/08/01 02:24:40;;;;;;;5.82;3.80;;;;;;;15.72;68.11;94085.91;5010135;28;20049;-65
2022/08/01 02:27:15;;;;;;;5.50;3.80;;;;;;;15.74;68.25;94091.81;5009899;28;20670;-66
2022/08/01 02:29:52;;;;;;;5.22;3.75;;;;;;;15.70;68.46;94085.59;5010154;28;20501;-64
2022/08/01 02:32:24;;;;;;;6.82;3.80;;;;;;;15.65;68.55;94086.91;5011021;28;20087;-64
2022/08/01 02:34:53;;;;;;;5.60;4.00;;;;;;;15.63;68.47;94088.56;5018902;28;20046;-64
2022/08/01 02:37:20;;;;;;;6.15;3.75;;;;;;;15.62;68.50;94089.81;5010829;28;20045;-65
2022/08/01 02:39:52;;;;;;;6.80;3.92;;;;;;;15.55;68.52;94088.03;5009851;28;20042;-65
2022/08/01 02:42:21;;;;;;;8.43;4.40;;;;;;;15.33;69.36;94090.69;5010604;28;20111;-63
2022/08/01 02:44:49;;;;;;;7.75;5.00;;;;;;;15.31;69.63;94101.41;5008439;28;20057;-65
2022/08/01 02:47:20;;;;;;;13.47;7.37;;;;;;;15.28;69.59;94094.78;5011013;28;20046;-66
2022/08/01 02:49:49;;;;;;;5.85;4.03;;;;;;;15.19;70.32;94091.88;5010316;28;20039;-64
2022/08/01 02:52:22;;;;;;;5.88;4.28;;;;;;;15.26;69.86;94094.44;5010451;28;20057;-65
2022/08/01 02:54:53;;;;;;;6.53;4.15;;;;;;;15.29;69.75;94098.31;5009896;28;20048;-65
2022/08/01 02:57:21;;;;;;;5.72;4.22;;;;;;;15.24;69.91;94090.59;5010132;28;20119;-67
2022/08/01 02:59:53;;;;;;;9.03;4.13;;;;;;;15.22;70.26;94101.31;5009750;28;20519;-64
2022/08/01 03:02:23;;;;;;;6.72;4.18;;;;;;;15.27;70.00;94087.72;5014648;28;20054;-65
2022/08/01 03:04:52;;;;;;;5.50;3.95;;;;;;;15.27;70.13;94089.69;5009798;28;20053;-64
2022/08/01 03:07:23;;;;;;;5.38;3.83;;;;;;;15.24;70.06;94096.13;5010370;28;20075;-64
2022/08/01 03:10:01;;;;;;;6.40;4.13;;;;;;;15.27;69.93;94092.44;5009625;28;20049;-66
2022/08/01 03:12:30;;;;;;;5.93;4.03;;;;;;;15.25;69.84;94094.88;5009755;28;20058;-66
2022/08/01 03:15:00;;;;;;;6.00;4.10;;;;;;;15.20;70.03;94093.44;5009695;28;20046;-64
2022/08/01 03:17:28;;;;;;;6.13;4.30;;;;;;;15.09;70.52;94104.84;5009552;28;20048;-65
2022/08/01 03:19:58;;;;;;;6.20;4.40;;;;;;;15.08;70.33;94108.03;5009567;28;20034;-64
2022/08/01 03:22:27;;;;;;;6.25;4.43;;;;;;;15.05;70.70;94100.59;5009882;28;20056;-64
2022/08/01 03:24:56;;;;;;;5.50;3.80;;;;;;;14.92;70.84;94109.66;5009420;28;20060;-64
2022/08/01 03:27:25;;;;;;;5.50;3.88;;;;;;;14.92;70.91;94111.66;5009693;28;20042;-63
2022/08/01 03:29:55;;;;;;;6.57;4.18;;;;;;;14.84;71.51;94111.06;5040659;28;20042;-63
2022/08/01 03:32:23;;;;;;;6.32;3.88;;;;;;;14.85;71.52;94117.38;5010065;28;20038;-66
2022/08/01 03:34:50;;;;;;;6.90;3.85;;;;;;;14.87;71.55;94109.41;5021813;28;20430;-64
2022/08/01 03:37:27;;;;;;;5.97;4.00;;;;;;;14.87;71.58;94112.97;4996221;28;20050;-63
2022/08/01 03:40:09;;;;;;;8.15;5.65;;;;;;;14.87;71.38;94110.22;5009615;28;20479;-64
2022/08/01 03:42:41;;;;;;;7.38;4.60;;;;;;;14.83;71.39;94106.78;5008266;28;20050;-67
2022/08/01 03:45:21;;;;;;;7.18;4.53;;;;;;;14.84;71.27;94116.59;5008964;28;20045;-64
2022/08/01 03:47:52;;;;;;;6.35;4.32;;;;;;;14.85;71.79;94112.63;5009221;28;20860;-63
2022/08/01 03:50:21;;;;;;;7.07;4.10;;;;;;;14.85;71.71;94118.16;5009722;28;20037;-64
2022/08/01 03:52:50;;;;;;;6.60;4.00;;;;;;;14.79;71.87;94117.16;5008965;28;20046;-64
2022/08/01 03:55:20;;;;;;;6.30;4.30;;;;;;;14.77;72.12;94111.28;5009833;28;20048;-64
2022/08/01 03:57:48;;;;;;;6.57;4.10;;;;;;;14.76;71.81;94113.25;5009152;28;20385;-64
2022/08/01 04:00:18;;;;;;;6.53;4.47;;;;;;;14.64;72.45;94116.00;5009719;28;20052;-67
2022/08/01 04:02:49;;;;;;;7.70;4.10;;;;;;;14.69;72.50;94119.00;5019503;28;20049;-64
2022/08/01 04:05:16;;;;;;;5.78;4.00;;;;;;;14.68;72.14;94106.38;5008436;28;20426;-63
2022/08/01 04:07:50;;;;;;;8.73;4.72;;;;;;;14.72;72.03;94111.81;5009051;28;20046;-63
2022/08/01 04:10:16;;;;;;;6.50;4.38;;;;;;;14.74;72.26;94107.41;5009646;28;20073;-67
2022/08/01 04:12:43;;;;;;;8.25;4.30;;;;;;;14.49;73.26;94108.06;5008803;28;20453;-65
2022/08/01 04:15:10;;;;;;;7.40;4.33;;;;;;;14.60;72.16;94109.78;5009538;28;20499;-63
2022/08/01 04:17:37;;;;;;;7.32;4.40;;;;;;;14.58;72.30;94111.00;5008743;28;20057;-63
2022/08/01 04:20:04;;;;;;;5.72;4.30;;;;;;;14.61;72.36;94112.13;5009595;28;20046;-67
2022/08/01 04:22:30;;;;;;;6.60;4.13;;;;;;;14.68;72.42;94114.69;5009243;28;20038;-66
2022/08/01 04:25:09;;;;;;;10.10;4.18;;;;;;;14.68;72.46;94113.91;5008801;28;20479;-64
2022/08/01 04:27:42;;;;;;;9.33;4.80;;;;;;;14.68;72.85;94114.69;5006998;28;20058;-63
2022/08/01 04:30:20;;;;;;;6.13;4.20;;;;;;;14.74;72.63;94112.16;5013210;28;20064;-65
2022/08/01 04:32:49;;;;;;;7.65;4.43;;;;;;;14.76;72.70;94109.72;5012284;28;20058;-63
2022/08/01 04:35:19;;;;;;;6.75;4.60;;;;;;;14.76;72.42;94118.78;5021831;28;20099;-63
2022/08/01 04:38:09;;;;;;;8.05;4.70;;;;;;;14.82;72.08;94124.56;5012079;28;20452;-66
2022/08/01 04:40:36;;;;;;;6.00;4.20;;;;;;;14.87;72.25;94126.00;5012264;28;20048;-66
2022/08/01 04:43:03;;;;;;;7.95;4.07;;;;;;;14.91;72.08;94121.94;5012827;28;20037;-65
2022/08/01 04:45:32;;;;;;;7.68;4.40;;;;;;;14.97;71.87;94122.19;5012618;28;20050;-71
2022/08/01 04:47:59;;;;;;;6.53;4.10;;;;;;;14.99;71.80;94116.97;5011996;28;20348;-67
2022/08/01 04:50:27;;;;;;;7.90;4.47;;;;;;;15.01;71.82;94124.81;5012820;28;20049;-64
2022/08/01 04:52:54;;;;;;;6.87;4.60;;;;;;;15.06;71.79;94124.28;5011921;28;20044;-63
2022/08/01 04:55:21;;;;;;;7.15;4.30;;;;;;;15.11;71.54;94123.72;5012854;28;20042;-63
2022/08/01 04:57:48;;;;;;;7.05;4.78;;;;;;;15.01;71.58;94124.81;5012094;28;20046;-63
2022/08/01 05:00:16;;;;;;;8.45;4.70;;;;;;;15.09;71.35;94126.94;5011100;28;20056;-64
2022/08/01 05:02:43;;;;;;;10.90;4.60;;;;;;;15.14;71.04;94122.84;5016623;28;20045;-66
2022/08/01 05:05:10;;;;;;;6.43;4.30;;;;;;;15.19;70.91;94130.59;5012885;28;20073;-65
2022/08/01 05:07:39;;;;;;;7.90;5.07;;;;;;;15.05;71.14;94131.00;5011686;28;20050;-64
2022/08/01 05:10:11;;;;;;;6.93;4.75;;;;;;;15.02;70.87;94115.31;5011199;28;20415;-64
2022/08/01 05:12:38;;;;;;;7.30;5.20;;;;;;;14.86;71.67;94122.47;5011267;28;20036;-64
2022/08/01 05:15:06;;;;;;;8.95;4.93;;;;;;;14.94;71.66;94120.28;5012229;28;20037;-63
2022/08/01 05:17:41;;;;;;;8.60;5.10;;;;;;;15.04;71.40;94123.94;5011480;28;20099;-63
2022/08/01 05:20:10;;;;;;;8.63;5.25;;;;;;;15.10;71.48;94127.72;5012162;28;20057;-62
2022/08/01 05:22:37;;;;;;;8.13;4.90;;;;;;;15.15;71.34;94124.41;5011165;28;20046;-63
2022/08/01 05:25:04;;;;;;;10.80;5.40;;;;;;;15.24;71.35;94121.75;5011935;28;20453;-63
2022/08/01 05:27:32;;;;;;;8.73;5.00;;;;;;;15.43;71.12;94124.75;5011903;28;20048;-63
2022/08/01 05:29:59;;;;;;;8.17;5.47;;;;;;;15.55;70.93;94113.72;5010944;28;21330;-65
2022/08/01 05:32:27;;;;;;;7.60;5.28;;;;;;;15.58;70.83;94123.13;5011757;28;20513;-64
2022/08/01 05:34:53;;;;;;;8.73;5.47;;;;;;;15.54;71.26;94119.69;5020437;28;20060;-64
2022/08/01 05:37:20;;;;;;;7.78;4.90;;;;;;;15.52;71.25;94116.59;5011926;28;20050;-63
2022/08/01 05:39:47;;;;;;;7.53;4.78;;;;;;;15.73;70.43;94117.91;5010842;28;20403;-63
2022/08/01 05:42:13;;;;;;;10.17;5.03;;;;;;;15.87;70.36;94125.75;5011825;28;20095;-63
2022/08/01 05:44:40;;;;;;;8.93;4.93;;;;;;;16.05;69.60;94116.88;5010781;28;20457;-63
2022/08/01 05:47:07;;;;;;;7.68;4.78;;;;;;;16.18;69.07;94117.63;5011448;28;20411;-64
2022/08/01 05:49:34;;;;;;;8.00;4.90;;;;;;;16.26;69.07;94122.91;5011238;28;20410;-63
2022/08/01 05:52:01;;;;;;;9.32;4.78;;;;;;;16.44;68.57;94127.84;5011627;28;20388;-64
2022/08/01 05:54:29;;;;;;;8.03;4.90;;;;;;;17.05;66.87;94122.97;5011725;28;20052;-62
2022/08/01 05:56:59;;;;;;;6.30;4.50;;;;;;;20.38;57.00;94118.19;5010778;28;20045;-63
2022/08/01 05:59:26;;;;;;;7.95;4.47;;;;;;;23.97;47.58;94114.75;5011403;28;20054;-64
2022/08/01 06:01:53;;;;;;;7.15;4.40;;;;;;;24.75;43.80;94117.25;5012983;28;20540;-65
2022/08/01 06:04:20;;;;;;;7.80;4.20;;;;;;;26.96;39.58;94106.81;5013776;28;20064;-65
2022/08/01 06:06:47;;;;;;;6.50;4.03;;;;;;;27.74;37.95;94110.47;5010853;28;20050;-69
2022/08/01 06:09:14;;;;;;;6.25;4.35;;;;;;;27.62;37.29;94109.78;5011248;28;20438;-65
2022/08/01 06:11:40;;;;;;;6.88;4.57;;;;;;;29.02;36.17;94106.94;5010643;28;20103;-68
2022/08/01 06:14:07;;;;;;;7.50;4.40;;;;;;;30.00;32.89;94109.44;5010950;28;20363;-65
2022/08/01 06:16:34;;;;;;;5.85;4.30;;;;;;;29.66;33.51;94109.94;5010575;28;20111;-64
2022/08/01 06:19:01;;;;;;;5.90;4.10;;;;;;;30.86;31.96;94110.19;5010530;28;20072;-69
2022/08/01 06:21:27;;;;;;;5.05;3.67;;;;;;;31.93;29.97;94109.97;5011146;28;20045;-65
2022/08/01 06:23:54;;;;;;;5.07;3.90;;;;;;;31.58;30.56;94108.50;5010115;28;20042;-63
2022/08/01 06:26:21;;;;;;;5.35;3.70;;;;;;;31.70;30.43;94111.84;5010783;28;20095;-66
2022/08/01 06:28:48;;;;;;;10.45;4.18;;;;;;;31.11;31.22;94109.22;5009887;28;20060;-63
2022/08/01 06:31:15;;;;;;;4.63;3.70;;;;;;;30.46;32.45;94115.88;5010846;28;20383;-64
2022/08/01 06:33:42;;;;;;;5.18;3.60;;;;;;;32.88;29.50;94108.13;5013620;28;20041;-64
2022/08/01 06:36:09;;;;;;;4.18;3.47;;;;;;;31.99;30.40;94104.16;5016887;28;20121;-65
2022/08/01 06:38:36;;;;;;;5.38;3.50;;;;;;;34.27;27.25;94100.84;5028556;28;20042;-65
2022/08/01 06:41:02;;;;;;;4.72;3.33;;;;;;;33.15;27.92;94108.69;5010531;28;20046;-67
2022/08/01 06:43:30;;;;;;;4.73;3.47;;;;;;;35.11;25.46;94103.63;5010521;28;20049;-64
2022/08/01 06:45:57;;;;;;;4.97;3.60;;;;;;;34.75;25.74;94107.53;5009981;28;20045;-64
2022/08/01 06:48:23;;;;;;;11.32;3.30;;;;;;;31.32;30.69;94112.13;5011488;28;20044;-64
2022/08/01 06:51:07;;;;;;;7.68;3.67;;;;;;;31.17;31.05;94107.81;5008797;28;20488;-64
2022/08/01 06:53:38;;;;;;;4.05;2.95;;;;;;;31.32;31.32;94104.38;5009749;28;20046;-66
2022/08/01 06:56:06;;;;;;;3.97;2.77;;;;;;;32.06;30.04;94097.09;5009628;28;20050;-67
2022/08/01 06:58:34;;;;;;;3.80;2.90;;;;;;;30.82;31.77;94101.25;5008892;28;20045;-62
2022/08/01 07:01:05;;;;;;;3.75;2.50;;;;;;;32.33;29.92;94114.72;5037294;28;20050;-68
2022/08/01 07:03:34;;;;;;;3.97;2.70;;;;;;;32.17;30.37;94108.91;5014628;28;20057;-68
2022/08/01 07:06:20;;;;;;;4.20;2.58;;;;;;;33.43;28.39;94107.84;5006425;28;20445;-68
2022/08/01 07:08:46;;;;;;;3.57;2.33;;;;;;;32.90;29.46;94111.94;5009415;28;20152;-65
2022/08/01 07:11:13;;;;;;;3.88;2.40;;;;;;;31.95;30.16;94098.84;5010211;28;20057;-68
2022/08/01 07:13:40;;;;;;;4.97;2.45;;;;;;;32.22;30.10;94105.16;5005462;28;20045;-71
2022/08/01 07:16:12;;;;;;;3.70;2.80;;;;;;;30.93;32.11;94110.88;4996503;28;20046;-65
2022/08/01 07:18:40;;;;;;;3.78;2.75;;;;;;;31.76;31.02;94109.63;5009541;28;20400;-66
2022/08/01 07:21:07;;;;;;;5.63;2.93;;;;;;;29.33;34.59;94119.66;5009835;28;20037;-65
2022/08/01 07:23:54;;;;;;;6.55;3.20;;;;;;;30.71;32.58;94107.16;4999434;28;20042;-65
2022/08/01 07:26:21;;;;;;;5.32;3.30;;;;;;;30.07;34.50;94103.13;5006388;28;20045;-65
2022/08/01 07:28:48;;;;;;;5.10;3.50;;;;;;;30.69;33.06;94106.16;5008816;28;20062;-65
2022/08/01 07:31:14;;;;;;;5.15;3.20;;;;;;;33.17;29.69;94100.34;5009433;28;20050;-68
2022/08/01 07:33:41;;;;;;;4.83;3.80;;;;;;;33.62;28.33;94105.50;5012520;28;20046;-71
2022/08/01 07:36:18;;;;;;;5.72;3.83;;;;;;;34.19;27.15;94110.16;5015616;28;20117;-65
2022/08/01 07:38:46;;;;;;;5.30;3.88;;;;;;;31.93;30.54;94109.97;5009378;28;20041;-68
2022/08/01 07:41:13;;;;;;;5.65;4.07;;;;;;;30.66;33.11;94102.34;5010029;28;20054;-66
2022/08/01 07:43:40;;;;;;;4.80;4.10;;;;;;;30.44;33.01;94101.47;5010295;28;20406;-64
2022/08/01 07:46:18;;;;;;;5.10;3.80;;;;;;;32.25;29.99;94095.53;5009804;28;20046;-65
2022/08/01 07:48:45;;;;;;;5.45;3.90;;;;;;;32.16;29.74;94095.28;5008930;28;20042;-65
2022/08/01 07:51:12;;;;;;;6.90;3.90;;;;;;;34.68;26.93;94090.41;5009800;28;20305;-66
2022/08/01 07:53:38;;;;;;;6.03;3.50;;;;;;;35.39;25.98;94096.13;5009428;28;20042;-65
2022/08/01 07:56:06;;;;;;;5.53;4.00;;;;;;;33.06;28.23;94092.09;5009586;28;20046;-65
2022/08/01 07:58:33;;;;;;;4.83;3.80;;;;;;;32.37;29.27;94095.25;5009840;28;20057;-65
2022/08/01 08:01:00;;;;;;;5.65;3.85;;;;;;;31.37;31.38;94089.34;5008617;28;20808;-65
2022/08/01 08:03:26;;;;;;;4.53;3.33;;;;;;;35.88;25.34;94085.44;5021347;28;20091;-65
2022/08/01 08:05:53;;;;;;;7.20;3.35;;;;;;;36.04;24.65;94086.09;5012821;28;20139;-68
2022/08/01 08:08:27;;;;;;;5.50;3.60;;;;;;;35.79;24.63;94084.72;5013570;28;20119;-65
2022/08/01 08:10:53;;;;;;;4.80;3.00;;;;;;;37.74;22.72;94083.88;5012660;28;20411;-65
2022/08/01 08:13:21;;;;;;;5.05;3.42;;;;;;;37.62;22.23;94080.03;5013257;28;20042;-64
2022/08/01 08:15:48;;;;;;;4.70;3.40;;;;;;;36.95;23.67;94070.28;5012457;28;20430;-66
2022/08/01 08:18:15;;;;;;;4.72;3.33;;;;;;;38.53;21.68;94071.44;5013521;28;20050;-65
2022/08/01 08:20:43;;;;;;;5.00;3.40;;;;;;;35.07;25.53;94073.97;5012936;28;20037;-65
2022/08/01 08:26:10;;;;;;;4.35;3.30;;;;;;;33.65;27.72;94074.38;4983033;28;20080;-68
2022/08/01 08:28:38;;;;;;;4.50;3.30;;;;;;;37.94;22.63;94072.53;5011747;28;20048;-68
2022/08/01 08:31:07;;;;;;;5.03;3.20;;;;;;;38.89;21.31;94072.00;5012672;28;20115;-67
2022/08/01 08:33:54;;;;;;;5.72;3.10;;;;;;;40.40;19.55;94067.16;5016186;28;20596;-65
2022/08/01 08:36:21;;;;;;;4.20;2.93;;;;;;;39.87;19.61;94067.78;5013571;28;20041;-65
2022/08/01 08:38:56;;;;;;;3.88;2.97;;;;;;;39.21;20.27;94058.59;5012575;28;20042;-67
2022/08/01 08:41:23;;;;;;;5.03;3.30;;;;;;;35.86;23.69;94060.34;5012931;28;20418;-66
2022/08/01 08:43:50;;;;;;;4.63;3.05;;;;;;;32.92;27.70;94060.19;5012098;28;20041;-64
2022/08/01 08:46:17;;;;;;;7.28;3.30;;;;;;;34.08;26.15;94067.78;5012933;28;20049;-65
2022/08/01 08:48:55;;;;;;;4.97;3.13;;;;;;;37.49;21.64;94063.97;5012110;28;20054;-65
2022/08/01 08:51:25;;;;;;;5.28;2.90;;;;;;;40.28;19.58;94053.38;5012655;28;20053;-66
2022/08/01 08:53:55;;;;;;;3.83;2.97;;;;;;;40.70;18.39;94054.13;5011823;28;20410;-65
2022/08/01 08:56:24;;;;;;;3.80;2.80;;;;;;;37.63;21.04;94055.03;5012836;28;20046;-65
2022/08/01 08:58:54;;;;;;;4.80;3.30;;;;;;;31.52;29.48;94065.31;5012023;28;20057;-66
2022/08/01 09:01:21;;;;;;;5.20;3.30;;;;;;;34.47;25.18;94054.31;5012250;28;20042;-68
2022/08/01 09:03:48;;;;;;;3.55;2.90;;;;;;;37.81;21.02;94056.47;5021225;28;20046;-66
2022/08/01 09:06:15;;;;;;;4.05;2.90;;;;;;;34.60;25.08;94053.34;4997262;28;20487;-65
2022/08/01 09:08:42;;;;;;;4.90;3.05;;;;;;;34.51;26.35;94056.78;5012181;28;20046;-65
2022/08/01 09:11:09;;;;;;;5.55;3.10;;;;;;;35.45;24.87;94062.44;5011832;28;20038;-65
2022/08/01 09:13:36;;;;;;;3.70;3.07;;;;;;;34.11;26.38;94068.72;5011825;28;20058;-65
2022/08/01 09:16:17;;;;;;;5.75;3.28;;;;;;;32.80;28.18;94065.44;5011632;28;20434;-65
2022/08/01 09:18:44;;;;;;;3.75;3.00;;;;;;;36.57;23.65;94057.13;5011832;28;20053;-65
2022/08/01 09:21:21;;;;;;;3.65;2.60;;;;;;;38.94;20.13;94059.47;5012303;28;20046;-68
2022/08/01 09:23:50;;;;;;;4.93;2.83;;;;;;;38.63;19.30;94060.00;5011458;28;20045;-71
2022/08/01 09:26:40;;;;;;;6.83;2.87;;;;;;;37.48;20.51;94059.56;5000612;28;20047;-65
2022/08/01 09:29:16;;;;;;;3.53;2.67;;;;;;;36.62;21.30;94051.72;5010243;28;20041;-65
2022/08/01 09:32:05;;;;;;;4.03;2.92;;;;;;;34.54;24.40;94052.78;5010689;28;20613;-65
2022/08/01 09:34:32;;;;;;;3.80;2.70;;;;;;;35.18;24.03;94050.78;5015743;28;20050;-65
2022/08/01 09:37:02;;;;;;;5.28;2.92;;;;;;;34.78;24.33;94057.91;5011598;28;20368;-65
2022/08/01 09:39:42;;;;;;;4.13;2.80;;;;;;;36.47;22.50;94047.69;5009142;28;20046;-65
2022/08/01 09:42:24;;;;;;;3.60;2.75;;;;;;;38.53;19.36;94047.75;5010863;28;20038;-68
2022/08/01 09:44:55;;;;;;;4.32;2.80;;;;;;;39.38;19.18;94031.81;5011184;28;20375;-65
2022/08/01 09:47:36;;;;;;;3.88;2.47;;;;;;;37.06;21.67;94037.56;5011716;28;20045;-66
2022/08/01 09:50:05;;;;;;;3.50;2.40;;;;;;;38.61;19.24;94025.44;5010691;28;20372;-65
2022/08/01 09:52:36;;;;;;;3.83;2.33;;;;;;;39.85;18.20;94026.63;5011389;28;20058;-67
2022/08/01 09:55:07;;;;;;;3.97;2.22;;;;;;;40.98;17.20;94025.78;5002933;28;20040;-66
2022/08/01 09:57:34;;;;;;;3.95;2.00;;;;;;;40.80;17.92;94026.06;5005038;28;20050;-65
2022/08/01 10:00:01;;;;;;;3.45;2.28;;;;;;;40.12;17.22;94024.25;5011388;28;20046;-66
2022/08/01 10:02:37;;;;;;;3.17;2.28;;;;;;;38.70;18.56;94018.22;5020118;28;20061;-67
2022/08/01 10:05:06;;;;;;;3.40;2.30;;;;;;;37.83;19.40;94022.28;5014784;28;21513;-65
2022/08/01 10:07:56;;;;;;;3.78;2.22;;;;;;;38.96;18.12;94008.72;5011145;28;20049;-65
2022/08/01 10:10:24;;;;;;;2.95;2.15;;;;;;;37.56;19.21;94008.69;5000893;28;20054;-65
2022/08/01 10:12:56;;;;;;;4.78;2.03;;;;;;;36.86;20.01;94002.31;5010547;28;20052;-64
2022/08/01 10:15:24;;;;;;;2.80;1.92;;;;;;;37.51;18.94;94003.22;5011575;28;20046;-66
2022/08/01 10:18:06;;;;;;;3.30;2.00;;;;;;;37.85;18.73;93995.91;5010244;28;20887;-64
2022/08/01 10:20:51;;;;;;;3.72;2.00;;;;;;;37.36;18.50;93989.91;5010672;28;20048;-66
2022/08/01 10:23:24;;;;;;;2.90;1.70;;;;;;;36.43;19.38;93995.13;5011228;28;20046;-68
2022/08/01 10:26:08;;;;;;;3.47;1.98;;;;;;;37.86;18.10;93995.31;5009304;28;20629;-65
2022/08/01 10:28:36;;;;;;;3.63;1.90;;;;;;;35.68;21.10;93988.13;5010435;28;20532;-67
2022/08/01 10:31:07;;;;;;;4.33;2.23;;;;;;;35.72;20.83;93991.31;5010686;28;20095;-65
2022/08/01 10:33:41;;;;;;;3.10;2.00;;;;;;;34.13;21.74;93995.63;5012340;28;20076;-65
2022/08/01 10:36:20;;;;;;;4.50;1.63;;;;;;;31.08;24.29;93985.59;5005058;28;20053;-68
2022/08/01 10:38:49;;;;;;;4.82;1.90;;;;;;;31.23;24.12;93974.41;5010317;28;20042;-69
2022/08/01 10:41:18;;;;;;;3.53;1.70;;;;;;;32.19;24.17;93981.34;4999000;28;20072;-65
2022/08/01 10:43:45;;;;;;;3.00;1.77;;;;;;;34.33;21.94;93973.22;5010304;28;20046;-67
2022/08/01 10:46:13;;;;;;;3.30;1.52;;;;;;;36.08;20.21;93972.19;5010282;28;20056;-68
2022/08/01 10:48:53;;;;;;;3.15;1.70;;;;;;;35.66;19.50;93975.75;5009902;28;20045;-65
2022/08/01 10:51:21;;;;;;;2.83;1.50;;;;;;;35.81;19.34;93964.22;5010529;28;20050;-65
2022/08/01 10:54:10;;;;;;;4.35;1.70;;;;;;;35.17;19.79;93975.06;5009490;28;20068;-68
2022/08/01 10:56:44;;;;;;;2.90;1.93;;;;;;;32.63;24.03;93972.91;5010018;28;20402;-64
2022/08/01 10:59:24;;;;;;;3.33;1.63;;;;;;;30.32;25.86;93972.72;5010345;28;20068;-64
2022/08/01 11:02:11;;;;;;;3.88;1.65;;;;;;;29.64;27.05;93987.31;5005845;28;20064;-64
2022/08/01 11:04:57;;;;;;;2.70;1.80;;;;;;;30.44;25.88;93976.09;5009833;28;20424;-66
2022/08/01 11:07:42;;;;;;;4.28;2.40;;;;;;;32.17;23.98;93983.97;5010469;28;20037;-64
2022/08/01 11:10:38;;;;;;;8.60;2.70;;;;;;;32.78;24.52;93971.44;5009599;28;20729;-64
2022/08/01 11:13:11;;;;;;;4.13;2.78;;;;;;;31.49;27.29;93969.97;5009453;28;20753;-64
2022/08/01 11:15:40;;;;;;;5.72;3.30;;;;;;;29.48;31.94;93977.81;5009885;28;20692;-65
2022/08/01 11:18:30;;;;;;;5.22;3.20;;;;;;;28.60;33.43;93974.44;5010301;28;20060;-64
2022/08/01 11:21:00;;;;;;;4.45;3.00;;;;;;;29.52;31.23;93952.03;5009723;28;20044;-64
2022/08/01 11:23:49;;;;;;;5.43;2.93;;;;;;;29.84;30.52;93961.28;5009865;28;20121;-64
2022/08/01 11:26:16;;;;;;;7.43;2.80;;;;;;;30.60;29.41;93952.34;5009786;28;20437;-66
2022/08/01 11:28:45;;;;;;;3.60;2.20;;;;;;;30.74;28.13;93963.66;5009550;28;20042;-63
2022/08/01 11:31:32;;;;;;;3.78;2.45;;;;;;;29.94;29.15;93958.00;5010308;28;20038;-64
2022/08/01 11:34:04;;;;;;;7.63;2.55;;;;;;;29.71;29.58;93960.47;5011166;28;20109;-65
2022/08/01 11:36:31;;;;;;;3.47;2.30;;;;;;;29.60;29.46;93955.75;5010536;28;20050;-65
2022/08/01 11:39:18;;;;;;;6.70;2.40;;;;;;;29.94;28.89;93958.00;4992606;28;20452;-66
2022/08/01 11:41:46;;;;;;;3.70;2.55;;;;;;;29.61;29.56;93954.47;5006114;28;20054;-64
2022/08/01 11:44:25;;;;;;;5.30;2.40;;;;;;;30.39;28.27;93951.50;5013876;28;20064;-65
2022/08/01 11:47:02;;;;;;;3.80;2.70;;;;;;;30.84;27.33;93951.31;5013686;28;20050;-64
2022/08/01 11:49:54;;;;;;;3.33;2.47;;;;;;;30.39;27.61;93951.50;5013916;28;20044;-63
2022/08/01 11:52:31;;;;;;;3.58;2.17;;;;;;;29.54;28.70;93946.59;5002610;28;20052;-63
2022/08/01 11:55:08;;;;;;;3.53;2.20;;;;;;;29.67;28.71;93947.41;5012981;28;20905;-63
2022/08/01 11:57:37;;;;;;;4.95;2.20;;;;;;;29.60;28.67;93947.28;5013261;28;20050;-63